createdAt,value
2018-08-14T00:00:21.032Z,94.10
2018-08-14T00:00:54.091Z,94.00
2018-08-14T00:01:27.129Z,94.00
2018-08-14T00:02:00.164Z,94.10
2018-08-14T00:02:33.183Z,94.10
2018-08-14T00:03:06.211Z,94.10
2018-08-14T00:03:40.016Z,94.10
2018-08-14T00:04:13.701Z,94.10
2018-08-14T00:04:46.772Z,94.10
2018-08-14T00:05:20.589Z,94.20
2018-08-14T00:05:53.640Z,94.20
2018-08-14T00:06:27.435Z,94.10
2018-08-14T00:07:00.484Z,94.20
2018-08-14T00:07:33.577Z,94.20
2018-08-14T00:08:06.685Z,94.20
2018-08-14T00:08:39.709Z,94.20
2018-08-14T00:09:12.753Z,94.20
2018-08-14T00:09:45.805Z,94.20
2018-08-14T00:10:18.839Z,94.20
2018-08-14T00:10:51.876Z,94.20
2018-08-14T00:11:24.920Z,94.10
2018-08-14T00:11:57.949Z,94.20
2018-08-14T00:12:31.202Z,94.10
2018-08-14T00:13:04.220Z,94.20
2018-08-14T00:13:38.033Z,94.30
2018-08-14T00:14:11.078Z,94.20
2018-08-14T00:14:44.210Z,94.50
2018-08-14T00:15:17.245Z,94.20
2018-08-14T00:15:50.279Z,94.20
2018-08-14T00:16:23.336Z,94.20
2018-08-14T00:16:56.383Z,94.20
2018-08-14T00:17:29.416Z,94.10
2018-08-14T00:18:02.448Z,94.00
2018-08-14T00:18:35.492Z,94.00
2018-08-14T00:19:08.519Z,94.00
2018-08-14T00:19:41.561Z,94.10
2018-08-14T00:20:14.592Z,94.10
2018-08-14T00:20:47.628Z,94.20
2018-08-14T00:21:20.693Z,94.10
2018-08-14T00:21:53.727Z,94.20
2018-08-14T00:22:26.772Z,94.10
2018-08-14T00:22:59.822Z,94.00
2018-08-14T00:23:33.018Z,94.10
2018-08-14T00:24:06.051Z,94.00
2018-08-14T00:24:39.856Z,94.10
2018-08-14T00:25:14.414Z,94.10
2018-08-14T00:25:47.472Z,94.10
2018-08-14T00:26:20.511Z,94.00
2018-08-14T00:26:53.543Z,94.20
2018-08-14T00:27:26.588Z,94.10
2018-08-14T00:27:59.612Z,94.20
2018-08-14T00:28:33.408Z,94.30
2018-08-14T00:29:07.209Z,94.30
2018-08-14T00:29:40.991Z,94.50
2018-08-14T00:30:14.787Z,94.40
2018-08-14T00:30:48.604Z,94.30
2018-08-14T00:31:22.425Z,94.50
2018-08-14T00:31:55.464Z,94.40
2018-08-14T00:32:28.509Z,94.30
2018-08-14T00:33:01.531Z,94.30
2018-08-14T00:33:34.708Z,94.30
2018-08-14T00:34:07.748Z,94.40
2018-08-14T00:34:40.784Z,94.30
2018-08-14T00:35:13.823Z,94.30
2018-08-14T00:35:46.840Z,94.30
2018-08-14T00:36:19.895Z,94.40
2018-08-14T00:36:52.918Z,94.40
2018-08-14T00:37:26.720Z,94.50
2018-08-14T00:38:00.523Z,94.50
2018-08-14T00:38:33.548Z,94.40
2018-08-14T00:39:06.602Z,94.40
2018-08-14T00:39:39.611Z,94.40
2018-08-14T00:40:12.653Z,94.50
2018-08-14T00:40:45.692Z,94.50
2018-08-14T00:41:19.491Z,94.60
2018-08-14T00:41:52.532Z,94.60
2018-08-14T00:42:25.563Z,94.50
2018-08-14T00:42:58.737Z,94.50
2018-08-14T00:43:31.781Z,94.60
2018-08-14T00:44:04.831Z,94.60
2018-08-14T00:44:37.851Z,94.60
2018-08-14T00:45:10.888Z,94.60
2018-08-14T00:45:43.924Z,94.60
2018-08-14T00:46:17.092Z,94.60
2018-08-14T00:46:50.143Z,94.60
2018-08-14T00:47:23.176Z,94.50
2018-08-14T00:47:56.219Z,94.50
2018-08-14T00:48:29.239Z,94.90
2018-08-14T00:49:03.045Z,94.60
2018-08-14T00:49:36.832Z,94.30
2018-08-14T00:50:10.639Z,94.60
2018-08-14T00:50:44.440Z,94.70
2018-08-14T00:51:17.475Z,94.60
2018-08-14T00:51:50.520Z,94.90
2018-08-14T00:52:24.312Z,94.60
2018-08-14T00:52:57.341Z,94.60
2018-08-14T00:53:31.154Z,94.60
2018-08-14T00:54:04.192Z,94.70
2018-08-14T00:54:37.234Z,94.60
2018-08-14T00:55:10.256Z,94.60
2018-08-14T00:55:44.064Z,94.70
2018-08-14T00:56:17.092Z,94.70
2018-08-14T00:56:50.140Z,94.60
2018-08-14T00:57:23.171Z,94.60
2018-08-14T00:57:56.979Z,94.70
2018-08-14T00:58:30.023Z,94.70
2018-08-14T00:59:03.064Z,94.70
2018-08-14T00:59:36.107Z,94.70
2018-08-14T01:00:09.139Z,94.70
2018-08-14T01:00:42.163Z,94.70
2018-08-14T01:01:15.199Z,94.70
2018-08-14T01:01:49.011Z,94.70
2018-08-14T01:02:22.043Z,94.70
2018-08-14T01:02:55.076Z,94.70
2018-08-14T01:03:28.099Z,94.70
2018-08-14T01:04:01.139Z,94.70
2018-08-14T01:04:34.172Z,94.70
2018-08-14T01:05:07.976Z,94.70
2018-08-14T01:05:41.012Z,94.70
2018-08-14T01:06:14.067Z,94.70
2018-08-14T01:06:47.254Z,94.90
2018-08-14T01:07:20.271Z,94.80
2018-08-14T01:07:53.317Z,94.80
2018-08-14T01:08:26.363Z,94.80
2018-08-14T01:08:59.396Z,94.80
2018-08-14T01:09:32.439Z,94.80
2018-08-14T01:10:05.481Z,94.70
2018-08-14T01:10:38.663Z,94.80
2018-08-14T01:11:11.705Z,94.80
2018-08-14T01:11:44.835Z,94.80
2018-08-14T01:12:17.871Z,94.80
2018-08-14T01:12:50.907Z,94.80
2018-08-14T01:13:23.940Z,94.80
2018-08-14T01:13:56.979Z,94.80
2018-08-14T01:14:30.031Z,94.80
2018-08-14T01:15:03.837Z,94.80
2018-08-14T01:15:37.631Z,94.90
2018-08-14T01:16:11.440Z,95.00
2018-08-14T01:16:44.498Z,95.00
2018-08-14T01:17:17.532Z,95.00
2018-08-14T01:17:50.572Z,95.00
2018-08-14T01:18:23.595Z,95.00
2018-08-14T01:18:56.637Z,95.00
2018-08-14T01:19:29.668Z,95.00
2018-08-14T01:20:03.464Z,95.00
2018-08-14T01:20:37.259Z,95.60
2018-08-14T01:21:11.059Z,95.00
2018-08-14T01:21:44.148Z,95.00
2018-08-14T01:22:17.939Z,95.10
2018-08-14T01:22:50.972Z,95.00
2018-08-14T01:23:24.013Z,95.40
2018-08-14T01:23:57.051Z,95.00
2018-08-14T01:24:30.861Z,95.10
2018-08-14T01:25:03.891Z,95.00
2018-08-14T01:25:37.697Z,95.00
2018-08-14T01:26:11.483Z,95.10
2018-08-14T01:26:45.323Z,95.10
2018-08-14T01:27:18.417Z,95.00
2018-08-14T01:27:51.469Z,95.00
2018-08-14T01:28:24.505Z,95.00
2018-08-14T01:28:58.295Z,94.90
2018-08-14T01:29:32.112Z,94.90
2018-08-14T01:30:05.139Z,94.80
2018-08-14T01:30:38.191Z,94.90
2018-08-14T01:31:11.223Z,94.80
2018-08-14T01:31:44.256Z,94.80
2018-08-14T01:32:17.294Z,94.80
2018-08-14T01:32:50.335Z,94.80
2018-08-14T01:33:23.387Z,94.80
2018-08-14T01:33:56.415Z,94.80
2018-08-14T01:34:29.468Z,94.80
2018-08-14T01:35:02.499Z,94.80
2018-08-14T01:35:35.547Z,94.80
2018-08-14T01:36:08.577Z,94.80
2018-08-14T01:36:41.611Z,94.70
2018-08-14T01:37:15.423Z,94.80
2018-08-14T01:37:48.460Z,94.80
2018-08-14T01:38:21.483Z,94.60
2018-08-14T01:38:54.641Z,94.80
2018-08-14T01:39:28.396Z,94.80
2018-08-14T01:40:01.435Z,94.80
2018-08-14T01:40:34.563Z,94.70
2018-08-14T01:41:07.595Z,94.70
2018-08-14T01:41:41.387Z,94.80
2018-08-14T01:42:15.201Z,94.80
2018-08-14T01:42:48.227Z,94.70
2018-08-14T01:43:21.271Z,94.80
2018-08-14T01:43:54.317Z,94.80
2018-08-14T01:44:27.367Z,94.70
2018-08-14T01:45:00.403Z,94.70
2018-08-14T01:45:33.596Z,94.80
2018-08-14T01:46:07.384Z,94.80
2018-08-14T01:46:40.421Z,94.80
2018-08-14T01:47:13.477Z,94.80
2018-08-14T01:47:47.259Z,94.80
2018-08-14T01:48:21.152Z,94.90
2018-08-14T01:48:54.104Z,94.90
2018-08-14T01:49:27.144Z,94.80
2018-08-14T01:50:00.223Z,94.80
2018-08-14T01:50:33.254Z,94.90
2018-08-14T01:51:06.282Z,94.80
2018-08-14T01:51:39.320Z,94.90
2018-08-14T01:52:12.371Z,94.90
2018-08-14T01:52:46.184Z,94.90
2018-08-14T01:53:19.227Z,94.80
2018-08-14T01:53:52.267Z,94.80
2018-08-14T01:54:25.292Z,94.80
2018-08-14T01:54:59.091Z,94.80
2018-08-14T01:55:32.159Z,94.80
2018-08-14T01:56:05.184Z,94.70
2018-08-14T01:56:38.555Z,94.80
2018-08-14T01:57:11.600Z,94.70
2018-08-14T01:57:45.453Z,94.90
2018-08-14T01:58:18.475Z,94.90
2018-08-14T01:58:51.523Z,95.00
2018-08-14T01:59:24.552Z,95.00
2018-08-14T01:59:57.576Z,95.00
2018-08-14T02:00:30.619Z,95.00
2018-08-14T02:01:03.658Z,95.00
2018-08-14T02:01:36.757Z,95.00
2018-08-14T02:02:09.792Z,95.00
2018-08-14T02:02:42.851Z,94.90
2018-08-14T02:03:15.879Z,94.90
2018-08-14T02:03:48.917Z,94.90
2018-08-14T02:04:22.712Z,95.10
2018-08-14T02:04:55.755Z,95.10
2018-08-14T02:05:28.797Z,94.90
2018-08-14T02:06:01.965Z,95.00
2018-08-14T02:06:35.004Z,95.00
2018-08-14T02:07:08.025Z,94.90
2018-08-14T02:07:41.077Z,94.80
2018-08-14T02:08:14.149Z,94.90
2018-08-14T02:08:47.726Z,95.00
2018-08-14T02:09:20.753Z,95.00
2018-08-14T02:09:54.554Z,94.90
2018-08-14T02:10:27.862Z,95.00
2018-08-14T02:11:00.900Z,94.90
2018-08-14T02:11:33.924Z,94.80
2018-08-14T02:12:07.719Z,95.00
2018-08-14T02:12:40.757Z,95.00
2018-08-14T02:13:13.816Z,95.00
2018-08-14T02:13:46.870Z,95.00
2018-08-14T02:14:19.889Z,94.90
2018-08-14T02:14:52.947Z,94.90
2018-08-14T02:15:26.013Z,95.00
2018-08-14T02:15:59.036Z,95.00
2018-08-14T02:16:32.075Z,95.00
2018-08-14T02:17:06.012Z,95.00
2018-08-14T02:17:39.054Z,94.90
2018-08-14T02:18:12.099Z,94.90
2018-08-14T02:18:45.139Z,95.00
2018-08-14T02:19:18.195Z,95.00
2018-08-14T02:19:51.988Z,95.10
2018-08-14T02:20:25.794Z,95.20
2018-08-14T02:20:58.834Z,95.10
2018-08-14T02:21:31.871Z,95.00
2018-08-14T02:22:04.899Z,95.00
2018-08-14T02:22:38.719Z,95.10
2018-08-14T02:23:11.748Z,95.10
2018-08-14T02:23:44.777Z,95.20
2018-08-14T02:24:17.802Z,95.20
2018-08-14T02:24:50.824Z,95.20
2018-08-14T02:25:24.012Z,95.60
2018-08-14T02:25:57.051Z,95.30
2018-08-14T02:26:30.089Z,95.40
2018-08-14T02:27:03.141Z,95.30
2018-08-14T02:27:36.199Z,95.30
2018-08-14T02:28:09.236Z,95.30
2018-08-14T02:28:42.267Z,95.30
2018-08-14T02:29:15.300Z,95.30
2018-08-14T02:29:48.524Z,95.30
2018-08-14T02:30:21.556Z,95.20
2018-08-14T02:30:55.361Z,95.20
2018-08-14T02:31:28.387Z,95.10
2018-08-14T02:32:01.420Z,95.10
2018-08-14T02:32:34.452Z,95.20
2018-08-14T02:33:07.488Z,95.20
2018-08-14T02:33:40.517Z,95.30
2018-08-14T02:34:13.552Z,95.20
2018-08-14T02:34:46.575Z,95.30
2018-08-14T02:35:20.386Z,95.20
2018-08-14T02:35:53.399Z,95.20
2018-08-14T02:36:26.432Z,95.20
2018-08-14T02:36:59.464Z,95.20
2018-08-14T02:37:32.494Z,95.10
2018-08-14T02:38:05.553Z,95.20
2018-08-14T02:38:38.648Z,95.20
2018-08-14T02:39:11.671Z,95.10
2018-08-14T02:39:44.712Z,95.20
2018-08-14T02:40:17.768Z,95.20
2018-08-14T02:40:50.940Z,95.20
2018-08-14T02:41:23.958Z,95.20
2018-08-14T02:41:56.992Z,95.20
2018-08-14T02:42:30.016Z,95.10
2018-08-14T02:43:03.068Z,95.20
2018-08-14T02:43:36.093Z,95.10
2018-08-14T02:44:09.119Z,95.10
2018-08-14T02:44:42.140Z,95.00
2018-08-14T02:45:15.179Z,95.10
2018-08-14T02:45:48.212Z,95.10
2018-08-14T02:46:21.293Z,95.10
2018-08-14T02:46:54.330Z,95.00
2018-08-14T02:47:28.127Z,95.00
2018-08-14T02:48:01.960Z,95.00
2018-08-14T02:48:34.995Z,95.00
2018-08-14T02:49:08.024Z,94.90
2018-08-14T02:49:41.081Z,94.90
2018-08-14T02:50:14.698Z,94.80
2018-08-14T02:50:47.750Z,94.90
2018-08-14T02:51:20.912Z,95.00
2018-08-14T02:51:53.955Z,94.90
2018-08-14T02:52:26.988Z,95.00
2018-08-14T02:53:00.053Z,95.00
2018-08-14T02:53:33.081Z,95.00
2018-08-14T02:54:06.119Z,95.10
2018-08-14T02:54:39.152Z,95.10
2018-08-14T02:55:12.197Z,95.00
2018-08-14T02:55:45.332Z,95.00
2018-08-14T02:56:18.507Z,95.00
2018-08-14T02:56:51.684Z,95.00
2018-08-14T02:57:24.743Z,95.00
2018-08-14T02:57:57.794Z,95.00
2018-08-14T02:58:30.832Z,95.00
2018-08-14T02:59:03.872Z,94.90
2018-08-14T02:59:36.910Z,94.90
2018-08-14T03:00:10.712Z,95.00
2018-08-14T03:00:43.745Z,95.00
2018-08-14T03:01:16.797Z,95.00
2018-08-14T03:01:49.827Z,94.90
2018-08-14T03:02:23.637Z,95.00
2018-08-14T03:02:56.676Z,95.00
2018-08-14T03:03:29.714Z,94.90
2018-08-14T03:04:03.519Z,94.90
2018-08-14T03:04:36.581Z,94.90
2018-08-14T03:05:09.598Z,94.90
2018-08-14T03:05:43.411Z,95.30
2018-08-14T03:06:16.432Z,94.90
2018-08-14T03:06:49.476Z,95.00
2018-08-14T03:07:23.438Z,94.90
2018-08-14T03:07:57.278Z,94.80
2018-08-14T03:08:30.465Z,94.80
2018-08-14T03:09:03.503Z,94.80
2018-08-14T03:09:36.539Z,94.80
2018-08-14T03:10:09.583Z,94.80
2018-08-14T03:10:42.628Z,94.80
2018-08-14T03:11:16.686Z,94.70
2018-08-14T03:11:49.703Z,94.70
2018-08-14T03:12:22.739Z,94.70
2018-08-14T03:12:55.796Z,94.70
2018-08-14T03:13:28.831Z,94.80
2018-08-14T03:14:01.885Z,94.70
2018-08-14T03:14:34.915Z,95.20
2018-08-14T03:15:07.955Z,94.80
2018-08-14T03:15:40.996Z,94.80
2018-08-14T03:16:14.032Z,94.80
2018-08-14T03:16:47.076Z,94.80
2018-08-14T03:17:20.872Z,94.90
2018-08-14T03:17:54.075Z,94.90
2018-08-14T03:18:27.120Z,94.80
2018-08-14T03:19:00.156Z,94.80
2018-08-14T03:19:34.224Z,94.70
2018-08-14T03:20:07.969Z,94.70
2018-08-14T03:20:41.769Z,94.70
2018-08-14T03:21:15.561Z,94.70
2018-08-14T03:21:48.619Z,94.70
2018-08-14T03:22:21.650Z,94.70
2018-08-14T03:22:56.243Z,94.80
2018-08-14T03:23:30.014Z,94.80
2018-08-14T03:24:03.060Z,94.80
2018-08-14T03:24:36.095Z,94.70
2018-08-14T03:25:09.147Z,94.70
2018-08-14T03:25:42.191Z,94.70
2018-08-14T03:26:15.222Z,94.70
2018-08-14T03:26:48.273Z,94.70
2018-08-14T03:27:21.360Z,94.60
2018-08-14T03:27:54.395Z,94.80
2018-08-14T03:28:27.527Z,94.60
2018-08-14T03:29:00.582Z,94.60
2018-08-14T03:29:33.627Z,94.60
2018-08-14T03:30:07.425Z,94.70
2018-08-14T03:30:41.211Z,94.70
2018-08-14T03:31:15.016Z,94.60
2018-08-14T03:31:49.332Z,94.70
2018-08-14T03:32:22.319Z,94.70
2018-08-14T03:32:55.364Z,94.60
2018-08-14T03:33:29.188Z,94.60
2018-08-14T03:34:02.220Z,94.60
2018-08-14T03:34:35.322Z,94.80
2018-08-14T03:35:08.383Z,94.60
2018-08-14T03:35:41.427Z,94.60
2018-08-14T03:36:14.473Z,94.60
2018-08-14T03:36:48.263Z,94.60
2018-08-14T03:37:21.295Z,94.60
2018-08-14T03:37:54.348Z,94.60
2018-08-14T03:38:27.385Z,94.60
2018-08-14T03:39:00.416Z,94.60
2018-08-14T03:39:33.522Z,94.60
2018-08-14T03:40:06.556Z,94.60
2018-08-14T03:40:40.344Z,94.70
2018-08-14T03:41:13.385Z,94.60
2018-08-14T03:41:46.430Z,94.50
2018-08-14T03:42:19.448Z,94.60
2018-08-14T03:42:52.472Z,94.70
2018-08-14T03:43:25.513Z,94.50
2018-08-14T03:43:58.540Z,94.50
2018-08-14T03:44:31.721Z,94.50
2018-08-14T03:45:04.744Z,94.50
2018-08-14T03:45:37.783Z,94.50
2018-08-14T03:46:10.819Z,94.90
2018-08-14T03:46:43.860Z,94.50
2018-08-14T03:47:16.891Z,94.50
2018-08-14T03:47:49.924Z,94.60
2018-08-14T03:48:23.740Z,94.60
2018-08-14T03:48:56.769Z,94.50
2018-08-14T03:49:29.808Z,94.50
2018-08-14T03:50:02.836Z,94.50
2018-08-14T03:50:36.643Z,94.50
2018-08-14T03:51:10.436Z,94.80
2018-08-14T03:51:44.227Z,94.60
2018-08-14T03:52:18.653Z,94.50
2018-08-14T03:52:51.679Z,94.60
2018-08-14T03:53:24.729Z,94.50
2018-08-14T03:53:57.756Z,94.50
2018-08-14T03:54:31.568Z,94.60
2018-08-14T03:55:04.600Z,94.50
2018-08-14T03:55:37.631Z,94.60
2018-08-14T03:56:10.652Z,94.50
2018-08-14T03:56:43.674Z,94.60
2018-08-14T03:57:16.711Z,94.50
2018-08-14T03:57:50.279Z,94.50
2018-08-14T03:58:23.324Z,94.60
2018-08-14T03:58:57.115Z,94.50
2018-08-14T03:59:30.154Z,94.40
2018-08-14T04:00:03.980Z,94.40
2018-08-14T04:00:37.020Z,94.40
2018-08-14T04:01:10.042Z,94.50
2018-08-14T04:01:43.077Z,94.50
2018-08-14T04:02:16.114Z,94.50
2018-08-14T04:02:49.150Z,94.40
2018-08-14T04:03:22.240Z,94.40
2018-08-14T04:03:55.259Z,94.40
2018-08-14T04:04:28.283Z,94.40
2018-08-14T04:05:01.322Z,94.40
2018-08-14T04:05:35.115Z,94.50
2018-08-14T04:06:08.239Z,94.40
2018-08-14T04:06:41.203Z,94.50
2018-08-14T04:07:14.271Z,94.40
2018-08-14T04:07:47.309Z,94.50
2018-08-14T04:08:21.104Z,94.50
2018-08-14T04:08:54.162Z,94.50
2018-08-14T04:09:27.956Z,94.40
2018-08-14T04:10:01.758Z,94.50
2018-08-14T04:10:35.564Z,94.50
2018-08-14T04:11:08.680Z,94.50
2018-08-14T04:11:41.673Z,94.40
2018-08-14T04:12:14.706Z,94.40
2018-08-14T04:12:47.745Z,94.40
2018-08-14T04:13:20.860Z,94.40
2018-08-14T04:13:53.872Z,94.40
2018-08-14T04:14:26.910Z,94.40
2018-08-14T04:14:59.930Z,94.50
2018-08-14T04:15:32.979Z,94.50
2018-08-14T04:16:06.019Z,94.50
2018-08-14T04:16:39.052Z,94.50
2018-08-14T04:17:12.071Z,94.50
2018-08-14T04:17:45.104Z,94.50
2018-08-14T04:18:18.160Z,94.50
2018-08-14T04:18:51.208Z,94.40
2018-08-14T04:19:24.239Z,94.50
2018-08-14T04:19:57.278Z,94.40
2018-08-14T04:20:30.320Z,94.40
2018-08-14T04:21:03.380Z,94.60
2018-08-14T04:21:36.472Z,94.50
2018-08-14T04:22:09.513Z,94.60
2018-08-14T04:22:42.639Z,94.60
2018-08-14T04:23:15.811Z,94.60
2018-08-14T04:23:48.859Z,94.60
2018-08-14T04:24:21.883Z,94.60
2018-08-14T04:24:54.903Z,94.60
2018-08-14T04:25:27.928Z,95.00
2018-08-14T04:26:00.951Z,94.50
2018-08-14T04:26:34.066Z,94.60
2018-08-14T04:27:07.091Z,94.60
2018-08-14T04:27:40.220Z,94.70
2018-08-14T04:28:13.266Z,94.50
2018-08-14T04:28:46.299Z,94.50
2018-08-14T04:29:19.333Z,94.60
2018-08-14T04:29:52.370Z,94.60
2018-08-14T04:30:25.472Z,94.60
2018-08-14T04:30:58.491Z,94.60
2018-08-14T04:31:31.523Z,94.50
2018-08-14T04:32:04.572Z,94.60
2018-08-14T04:32:38.375Z,94.60
2018-08-14T04:33:12.183Z,94.60
2018-08-14T04:33:45.219Z,94.50
2018-08-14T04:34:18.256Z,94.50
2018-08-14T04:34:51.294Z,94.60
2018-08-14T04:35:24.332Z,94.70
2018-08-14T04:35:57.351Z,94.70
2018-08-14T04:36:30.447Z,94.70
2018-08-14T04:37:03.469Z,94.60
2018-08-14T04:37:37.274Z,94.60
2018-08-14T04:38:10.313Z,94.60
2018-08-14T04:38:43.340Z,94.60
2018-08-14T04:39:16.364Z,94.60
2018-08-14T04:39:49.407Z,94.60
2018-08-14T04:40:22.464Z,94.70
2018-08-14T04:40:55.481Z,94.70
2018-08-14T04:41:28.625Z,94.60
2018-08-14T04:42:01.651Z,94.60
2018-08-14T04:42:34.679Z,94.60
2018-08-14T04:43:07.732Z,94.60
2018-08-14T04:43:40.748Z,94.60
2018-08-14T04:44:13.768Z,94.70
2018-08-14T04:44:46.800Z,94.80
2018-08-14T04:45:19.841Z,94.80
2018-08-14T04:45:52.920Z,94.70
2018-08-14T04:46:25.904Z,94.80
2018-08-14T04:46:58.937Z,94.70
2018-08-14T04:47:32.745Z,94.60
2018-08-14T04:48:06.553Z,94.60
2018-08-14T04:48:39.737Z,94.60
2018-08-14T04:49:12.773Z,94.70
2018-08-14T04:49:45.799Z,94.70
2018-08-14T04:50:18.815Z,94.70
2018-08-14T04:50:52.619Z,95.10
2018-08-14T04:51:26.420Z,94.70
2018-08-14T04:51:59.446Z,94.70
2018-08-14T04:52:32.480Z,94.70
2018-08-14T04:53:05.543Z,94.70
2018-08-14T04:53:38.575Z,94.70
2018-08-14T04:54:11.618Z,94.80
2018-08-14T04:54:44.741Z,94.80
2018-08-14T04:55:17.751Z,94.80
2018-08-14T04:55:50.777Z,94.80
2018-08-14T04:56:23.805Z,94.80
2018-08-14T04:56:56.854Z,94.90
2018-08-14T04:57:30.660Z,94.80
2018-08-14T04:58:03.703Z,94.70
2018-08-14T04:58:36.763Z,94.70
2018-08-14T04:59:09.904Z,94.90
2018-08-14T04:59:42.929Z,94.80
2018-08-14T05:00:15.963Z,94.80
2018-08-14T05:00:48.998Z,94.80
2018-08-14T05:01:22.798Z,94.90
2018-08-14T05:01:55.846Z,94.90
2018-08-14T05:02:28.881Z,94.80
2018-08-14T05:03:01.921Z,94.80
2018-08-14T05:03:35.718Z,94.80
2018-08-14T05:04:08.753Z,94.80
2018-08-14T05:04:41.799Z,94.60
2018-08-14T05:05:14.825Z,94.80
2018-08-14T05:05:48.629Z,94.80
2018-08-14T05:06:22.425Z,94.80
2018-08-14T05:06:55.467Z,94.80
2018-08-14T05:07:28.501Z,94.80
2018-08-14T05:08:01.551Z,94.80
2018-08-14T05:08:35.353Z,94.80
2018-08-14T05:09:08.376Z,94.80
2018-08-14T05:09:41.416Z,94.80
2018-08-14T05:10:14.473Z,94.80
2018-08-14T05:10:48.285Z,94.80
2018-08-14T05:11:21.316Z,94.90
2018-08-14T05:11:54.352Z,94.80
2018-08-14T05:12:27.400Z,94.90
2018-08-14T05:13:00.426Z,94.90
2018-08-14T05:13:33.501Z,94.90
2018-08-14T05:14:06.558Z,94.90
2018-08-14T05:14:39.668Z,95.00
2018-08-14T05:15:13.469Z,94.90
2018-08-14T05:15:46.534Z,94.80
2018-08-14T05:16:19.568Z,94.80
2018-08-14T05:16:52.612Z,94.80
2018-08-14T05:17:25.643Z,94.80
2018-08-14T05:17:58.678Z,94.80
2018-08-14T05:18:31.771Z,94.90
2018-08-14T05:19:04.847Z,94.90
2018-08-14T05:19:37.859Z,94.90
2018-08-14T05:20:11.673Z,94.90
2018-08-14T05:20:44.725Z,94.90
2018-08-14T05:21:17.756Z,95.00
2018-08-14T05:21:50.784Z,94.90
2018-08-14T05:22:24.576Z,95.00
2018-08-14T05:22:58.388Z,94.90
2018-08-14T05:23:31.444Z,94.90
2018-08-14T05:24:05.246Z,94.90
2018-08-14T05:24:38.283Z,94.90
2018-08-14T05:25:11.340Z,94.90
2018-08-14T05:25:44.407Z,95.00
2018-08-14T05:26:17.400Z,95.00
2018-08-14T05:26:50.511Z,95.00
2018-08-14T05:27:23.483Z,95.10
2018-08-14T05:27:57.276Z,95.20
2018-08-14T05:28:30.331Z,95.20
2018-08-14T05:29:03.358Z,95.20
2018-08-14T05:29:36.395Z,95.10
2018-08-14T05:30:09.436Z,95.20
2018-08-14T05:30:42.485Z,95.20
2018-08-14T05:31:15.515Z,95.20
2018-08-14T05:31:49.315Z,95.30
2018-08-14T05:32:22.345Z,95.30
2018-08-14T05:32:55.379Z,95.30
2018-08-14T05:33:28.492Z,95.30
2018-08-14T05:34:01.467Z,95.40
2018-08-14T05:34:35.263Z,95.40
2018-08-14T05:35:08.302Z,95.50
2018-08-14T05:35:41.337Z,95.30
2018-08-14T05:36:14.464Z,95.20
2018-08-14T05:36:47.653Z,95.30
2018-08-14T05:37:20.692Z,95.40
2018-08-14T05:37:53.799Z,95.30
2018-08-14T05:38:26.842Z,95.30
2018-08-14T05:38:59.895Z,95.40
2018-08-14T05:39:33.716Z,95.60
2018-08-14T05:40:06.743Z,95.60
2018-08-14T05:40:39.771Z,95.50
2018-08-14T05:41:12.795Z,95.40
2018-08-14T05:41:45.838Z,95.30
2018-08-14T05:42:18.882Z,95.30
2018-08-14T05:42:51.921Z,95.40
2018-08-14T05:43:24.984Z,95.60
2018-08-14T05:43:58.008Z,95.40
2018-08-14T05:44:31.044Z,95.30
2018-08-14T05:45:04.082Z,95.30
2018-08-14T05:45:37.123Z,95.30
2018-08-14T05:46:10.147Z,95.40
2018-08-14T05:46:43.939Z,95.20
2018-08-14T05:47:16.971Z,95.20
2018-08-14T05:47:50.007Z,95.30
2018-08-14T05:48:23.034Z,95.40
2018-08-14T05:48:56.156Z,95.40
2018-08-14T05:49:29.191Z,95.40
2018-08-14T05:50:02.216Z,95.40
2018-08-14T05:50:35.250Z,95.50
2018-08-14T05:51:08.272Z,95.60
2018-08-14T05:51:41.334Z,95.50
2018-08-14T05:52:14.371Z,95.40
2018-08-14T05:52:47.399Z,95.40
2018-08-14T05:53:20.527Z,95.50
2018-08-14T05:53:53.576Z,95.60
2018-08-14T05:54:26.596Z,95.70
2018-08-14T05:54:59.636Z,95.80
2018-08-14T05:55:32.668Z,95.70
2018-08-14T05:56:05.712Z,95.60
2018-08-14T05:56:38.960Z,95.60
2018-08-14T05:57:11.958Z,95.70
2018-08-14T05:57:45.007Z,95.70
2018-08-14T05:58:18.027Z,95.60
2018-08-14T05:58:51.065Z,95.60
2018-08-14T05:59:24.107Z,95.60
2018-08-14T05:59:57.227Z,95.60
2018-08-14T06:00:30.255Z,95.70
2018-08-14T06:01:03.292Z,95.80
2018-08-14T06:01:36.335Z,95.90
2018-08-14T06:02:09.519Z,95.90
2018-08-14T06:02:42.554Z,95.80
2018-08-14T06:03:15.586Z,95.80
2018-08-14T06:03:49.419Z,95.80
2018-08-14T06:04:22.444Z,95.80
2018-08-14T06:04:55.480Z,95.90
2018-08-14T06:05:29.284Z,95.90
2018-08-14T06:06:02.318Z,95.80
2018-08-14T06:06:35.342Z,95.80
2018-08-14T06:07:08.383Z,95.80
2018-08-14T06:07:41.424Z,95.70
2018-08-14T06:08:14.455Z,95.70
2018-08-14T06:08:47.508Z,95.80
2018-08-14T06:09:20.550Z,95.80
2018-08-14T06:09:53.584Z,95.60
2018-08-14T06:10:26.780Z,95.60
2018-08-14T06:10:59.959Z,95.50
2018-08-14T06:11:33.007Z,95.60
2018-08-14T06:12:06.055Z,95.90
2018-08-14T06:12:39.085Z,95.60
2018-08-14T06:13:12.263Z,95.70
2018-08-14T06:13:45.296Z,95.70
2018-08-14T06:14:18.343Z,95.60
2018-08-14T06:14:51.375Z,95.50
2018-08-14T06:15:24.407Z,95.50
2018-08-14T06:15:57.451Z,95.50
2018-08-14T06:16:30.490Z,95.50
2018-08-14T06:17:03.616Z,95.60
2018-08-14T06:17:37.416Z,95.80
2018-08-14T06:18:11.215Z,95.60
2018-08-14T06:18:44.248Z,95.60
2018-08-14T06:19:17.315Z,95.60
2018-08-14T06:19:50.340Z,95.80
2018-08-14T06:20:23.374Z,95.80
2018-08-14T06:20:56.407Z,95.90
2018-08-14T06:21:29.444Z,95.90
2018-08-14T06:22:02.466Z,96.00
2018-08-14T06:22:35.563Z,95.90
2018-08-14T06:23:08.541Z,95.90
2018-08-14T06:23:41.577Z,95.90
2018-08-14T06:24:15.386Z,95.90
2018-08-14T06:24:48.433Z,95.90
2018-08-14T06:25:21.525Z,96.10
2018-08-14T06:25:54.481Z,96.00
2018-08-14T06:26:28.305Z,96.00
2018-08-14T06:27:02.147Z,95.90
2018-08-14T06:27:35.294Z,95.90
2018-08-14T06:28:08.332Z,95.80
2018-08-14T06:28:41.449Z,95.90
2018-08-14T06:29:14.475Z,95.90
2018-08-14T06:29:47.503Z,95.80
2018-08-14T06:30:21.317Z,96.00
2018-08-14T06:30:54.363Z,96.00
2018-08-14T06:31:27.400Z,96.00
2018-08-14T06:32:01.219Z,96.00
2018-08-14T06:32:34.240Z,96.00
2018-08-14T06:33:07.276Z,96.00
2018-08-14T06:33:40.310Z,95.90
2018-08-14T06:34:13.341Z,95.90
2018-08-14T06:34:46.388Z,95.90
2018-08-14T06:35:19.478Z,96.00
2018-08-14T06:35:52.450Z,96.00
2018-08-14T06:36:25.485Z,95.90
2018-08-14T06:36:59.284Z,96.10
2018-08-14T06:37:33.075Z,96.10
2018-08-14T06:38:07.018Z,96.10
2018-08-14T06:38:40.043Z,96.10
2018-08-14T06:39:13.839Z,96.20
2018-08-14T06:39:46.944Z,96.10
2018-08-14T06:40:20.708Z,96.10
2018-08-14T06:40:53.815Z,96.10
2018-08-14T06:41:26.847Z,96.20
2018-08-14T06:41:59.993Z,96.10
2018-08-14T06:42:33.037Z,96.10
2018-08-14T06:43:06.412Z,96.00
2018-08-14T06:43:39.437Z,96.10
2018-08-14T06:44:12.484Z,96.10
2018-08-14T06:44:45.540Z,96.20
2018-08-14T06:45:18.562Z,96.20
2018-08-14T06:45:51.596Z,96.10
2018-08-14T06:46:24.631Z,96.00
2018-08-14T06:46:57.739Z,96.10
2018-08-14T06:47:31.580Z,96.00
2018-08-14T06:48:04.716Z,96.00
2018-08-14T06:48:37.826Z,96.00
2018-08-14T06:49:10.824Z,96.00
2018-08-14T06:49:44.635Z,95.70
2018-08-14T06:50:17.672Z,96.00
2018-08-14T06:50:50.700Z,96.00
2018-08-14T06:51:23.737Z,95.90
2018-08-14T06:51:57.538Z,96.00
2018-08-14T06:52:31.335Z,95.90
2018-08-14T06:53:04.364Z,95.90
2018-08-14T06:53:37.392Z,95.90
2018-08-14T06:54:10.432Z,95.80
2018-08-14T06:54:43.464Z,95.80
2018-08-14T06:55:16.529Z,95.80
2018-08-14T06:55:49.567Z,95.70
2018-08-14T06:56:23.365Z,95.80
2018-08-14T06:56:57.180Z,95.80
2018-08-14T06:57:30.223Z,95.80
2018-08-14T06:58:04.011Z,95.70
2018-08-14T06:58:37.815Z,95.70
2018-08-14T06:59:10.882Z,95.70
2018-08-14T06:59:43.960Z,95.80
2018-08-14T07:00:16.980Z,95.80
2018-08-14T07:00:50.791Z,95.60
2018-08-14T07:01:23.826Z,95.60
2018-08-14T07:01:56.876Z,96.00
2018-08-14T07:02:29.924Z,95.60
2018-08-14T07:03:02.948Z,95.70
2018-08-14T07:03:36.138Z,95.70
2018-08-14T07:04:09.369Z,95.60
2018-08-14T07:04:42.413Z,95.60
2018-08-14T07:05:15.528Z,95.60
2018-08-14T07:05:48.512Z,95.60
2018-08-14T07:06:21.583Z,95.80
2018-08-14T07:06:54.620Z,96.00
2018-08-14T07:07:27.695Z,95.70